createdAt,value
2018-07-30T00:00:15.687Z,23.56
2018-07-30T00:01:15.687Z,23.62
2018-07-30T00:02:15.690Z,23.61
2018-07-30T00:03:15.958Z,23.56
2018-07-30T00:04:15.444Z,23.62
2018-07-30T00:05:15.784Z,23.66
2018-07-30T00:06:16.012Z,23.69
2018-07-30T00:07:15.715Z,23.63
2018-07-30T00:08:15.723Z,23.59
2018-07-30T00:09:15.736Z,23.65
2018-07-30T00:10:15.974Z,23.66
2018-07-30T00:11:15.726Z,23.56
2018-07-30T00:12:15.721Z,23.56
2018-07-30T00:13:15.737Z,23.62
2018-07-30T00:14:16.152Z,23.58
2018-07-30T00:15:15.740Z,23.56
2018-07-30T00:16:15.997Z,23.62
2018-07-30T00:17:15.494Z,23.59
2018-07-30T00:18:16.542Z,23.63
2018-07-30T00:19:16.001Z,23.62
2018-07-30T00:20:16.019Z,23.61
2018-07-30T00:21:16.015Z,23.61
2018-07-30T00:22:16.063Z,23.55
2018-07-30T00:23:16.041Z,23.71
2018-07-30T00:24:16.019Z,23.63
2018-07-30T00:25:15.769Z,23.65
2018-07-30T00:26:15.528Z,23.61
2018-07-30T00:27:16.031Z,23.65
2018-07-30T00:28:16.043Z,23.59
2018-07-30T00:29:16.045Z,23.62
2018-07-30T00:30:15.522Z,23.56
2018-07-30T00:31:15.837Z,23.44
2018-07-30T00:32:15.545Z,23.47
2018-07-30T00:33:15.815Z,23.44
2018-07-30T00:34:15.791Z,23.47
2018-07-30T00:35:15.795Z,23.5
2018-07-30T00:36:15.803Z,23.43
2018-07-30T00:37:15.805Z,23.4
2018-07-30T00:38:16.065Z,23.41
2018-07-30T00:39:15.816Z,23.36
2018-07-30T00:40:16.063Z,23.31
2018-07-30T00:41:15.820Z,23.39
2018-07-30T00:42:15.822Z,23.27
2018-07-30T00:43:15.571Z,23.31
2018-07-30T00:44:15.837Z,23.37
2018-07-30T00:45:15.846Z,23.27
2018-07-30T00:46:15.587Z,23.24
2018-07-30T00:47:16.100Z,23.27
2018-07-30T00:48:16.322Z,23.23
2018-07-30T00:49:16.097Z,23.21
2018-07-30T00:50:15.853Z,23.15
2018-07-30T00:51:15.860Z,23.21
2018-07-30T00:52:15.616Z,23.31
2018-07-30T00:53:15.848Z,23.27
2018-07-30T00:54:15.855Z,23.15
2018-07-30T00:55:16.118Z,23.2
2018-07-30T00:56:16.118Z,23.17
2018-07-30T00:57:15.875Z,23.21
2018-07-30T00:58:16.114Z,23.23
2018-07-30T00:59:16.125Z,23.17
2018-07-30T01:00:16.136Z,23.1
2018-07-30T01:01:15.879Z,23.18
2018-07-30T01:02:15.879Z,23.18
2018-07-30T01:03:16.141Z,23.17
2018-07-30T01:04:15.906Z,23.17
2018-07-30T01:05:15.943Z,23.18
2018-07-30T01:06:15.629Z,23.2
2018-07-30T01:07:15.922Z,23.08
2018-07-30T01:08:16.170Z,23.12
2018-07-30T01:09:15.642Z,23.15
2018-07-30T01:10:16.285Z,23.17
2018-07-30T01:11:16.182Z,23.17
2018-07-30T01:12:16.037Z,23.2
2018-07-30T01:13:15.662Z,23.18
2018-07-30T01:14:15.938Z,23.08
2018-07-30T01:15:15.665Z,23.18
2018-07-30T01:16:15.921Z,23.13
2018-07-30T01:17:15.930Z,23.25
2018-07-30T01:18:15.927Z,23.18
2018-07-30T01:19:16.182Z,23.13
2018-07-30T01:20:16.206Z,23.17
2018-07-30T01:21:16.206Z,23.18
2018-07-30T01:22:15.678Z,23.18
2018-07-30T01:23:15.947Z,23.05
2018-07-30T01:24:16.210Z,22.98
2018-07-30T01:25:15.949Z,23.03
2018-07-30T01:26:16.232Z,23.02
2018-07-30T01:27:15.707Z,22.99
2018-07-30T01:28:16.235Z,23.09
2018-07-30T01:29:16.251Z,23.02
2018-07-30T01:30:15.964Z,22.99
2018-07-30T01:31:16.246Z,23.03
2018-07-30T01:32:15.708Z,22.85
2018-07-30T01:33:16.029Z,22.81
2018-07-30T01:34:15.712Z,22.81
2018-07-30T01:35:15.979Z,22.8
2018-07-30T01:36:16.242Z,22.78
2018-07-30T01:37:16.236Z,22.76
2018-07-30T01:38:16.241Z,22.73
2018-07-30T01:39:15.986Z,22.78
2018-07-30T01:40:16.249Z,22.83
2018-07-30T01:41:15.739Z,22.75
2018-07-30T01:42:16.256Z,22.76
2018-07-30T01:43:16.262Z,22.83
2018-07-30T01:44:16.262Z,22.8
2018-07-30T01:45:16.006Z,22.85
2018-07-30T01:46:16.001Z,22.8
2018-07-30T01:47:16.259Z,22.81
2018-07-30T01:48:16.005Z,22.83
2018-07-30T01:49:15.759Z,22.83
2018-07-30T01:50:15.755Z,22.84
2018-07-30T01:51:16.273Z,22.88
2018-07-30T01:52:16.267Z,22.85
2018-07-30T01:53:16.027Z,22.84
2018-07-30T01:54:16.049Z,22.9
2018-07-30T01:55:16.276Z,22.9
2018-07-30T01:56:15.791Z,22.81
2018-07-30T01:57:15.771Z,22.85
2018-07-30T01:58:16.034Z,22.88
2018-07-30T01:59:15.784Z,22.85
2018-07-30T02:00:16.042Z,22.87
2018-07-30T02:01:16.044Z,22.88
2018-07-30T02:02:16.049Z,22.91
2018-07-30T02:03:16.046Z,22.83
2018-07-30T02:04:16.053Z,22.84
2018-07-30T02:05:16.057Z,22.83
2018-07-30T02:06:16.055Z,22.9
2018-07-30T02:07:16.072Z,22.83
2018-07-30T02:08:16.320Z,22.84
2018-07-30T02:09:16.330Z,22.81
2018-07-30T02:10:16.082Z,22.78
2018-07-30T02:11:16.337Z,22.8
2018-07-30T02:12:16.338Z,22.72
2018-07-30T02:13:16.096Z,22.63
2018-07-30T02:14:15.823Z,22.62
2018-07-30T02:15:16.336Z,22.6
2018-07-30T02:16:15.827Z,22.55
2018-07-30T02:17:16.357Z,22.62
2018-07-30T02:18:16.090Z,22.6
2018-07-30T02:19:16.339Z,22.54
2018-07-30T02:20:16.375Z,22.54
2018-07-30T02:21:16.358Z,22.54
2018-07-30T02:22:15.864Z,22.47
2018-07-30T02:23:16.376Z,22.48
2018-07-30T02:24:16.113Z,22.48
2018-07-30T02:25:16.122Z,22.48
2018-07-30T02:26:16.109Z,22.45
2018-07-30T02:27:16.382Z,22.44
2018-07-30T02:28:16.377Z,22.45
2018-07-30T02:29:15.860Z,22.44
2018-07-30T02:30:16.406Z,22.36
2018-07-30T02:31:16.126Z,22.29
2018-07-30T02:32:16.127Z,22.39
2018-07-30T02:33:16.174Z,22.28
2018-07-30T02:34:16.394Z,22.28
2018-07-30T02:35:16.395Z,22.28
2018-07-30T02:36:16.398Z,22.1
2018-07-30T02:37:16.403Z,21.99
2018-07-30T02:38:16.414Z,22.04
2018-07-30T02:39:16.404Z,21.98
2018-07-30T02:40:16.409Z,22.02
2018-07-30T02:41:16.402Z,22.04
2018-07-30T02:42:15.913Z,22.07
2018-07-30T02:43:15.913Z,22.13
2018-07-30T02:44:16.178Z,22.23
2018-07-30T02:45:16.428Z,22.25
2018-07-30T02:46:16.159Z,22.22
2018-07-30T02:47:16.171Z,22.25
2018-07-30T02:48:16.436Z,22.23
2018-07-30T02:49:16.167Z,22.26
2018-07-30T02:50:16.435Z,22.29
2018-07-30T02:51:16.193Z,22.23
2018-07-30T02:52:16.425Z,22.26
2018-07-30T02:53:16.436Z,22.33
2018-07-30T02:54:16.452Z,22.26
2018-07-30T02:55:16.456Z,22.3
2018-07-30T02:56:16.452Z,22.25
2018-07-30T02:57:15.936Z,22.23
2018-07-30T02:58:15.940Z,22.25
2018-07-30T02:59:16.204Z,22.25
2018-07-30T03:00:16.204Z,22.3
2018-07-30T03:01:16.452Z,22.29
2018-07-30T03:02:16.220Z,22.26
2018-07-30T03:03:16.201Z,22.25
2018-07-30T03:04:16.209Z,22.2
2018-07-30T03:05:16.457Z,22.18
2018-07-30T03:06:16.470Z,22.18
2018-07-30T03:07:16.247Z,22.1
2018-07-30T03:08:16.472Z,22.11
2018-07-30T03:09:16.518Z,22.14
2018-07-30T03:10:16.238Z,22.06
2018-07-30T03:11:16.223Z,21.99
2018-07-30T03:12:16.244Z,21.95
2018-07-30T03:13:16.481Z,21.95
2018-07-30T03:14:16.223Z,21.95
2018-07-30T03:15:16.285Z,21.82
2018-07-30T03:16:16.239Z,21.8
2018-07-30T03:17:16.246Z,21.82
2018-07-30T03:18:16.498Z,21.96
2018-07-30T03:19:16.747Z,21.88
2018-07-30T03:20:16.500Z,21.95
2018-07-30T03:21:16.245Z,21.89
2018-07-30T03:22:16.245Z,21.89
2018-07-30T03:23:16.251Z,21.8
2018-07-30T03:24:16.000Z,21.75
2018-07-30T03:25:15.997Z,21.72
2018-07-30T03:26:16.514Z,21.69
2018-07-30T03:27:16.256Z,21.69
2018-07-30T03:28:16.509Z,21.7
2018-07-30T03:29:16.514Z,21.72
2018-07-30T03:30:16.517Z,21.79
2018-07-30T03:31:16.557Z,21.77
2018-07-30T03:32:16.525Z,21.83
2018-07-30T03:33:16.542Z,21.83
2018-07-30T03:34:16.288Z,21.88
2018-07-30T03:35:16.290Z,21.91
2018-07-30T03:36:16.025Z,21.89
2018-07-30T03:37:16.543Z,21.85
2018-07-30T03:38:16.558Z,21.82
2018-07-30T03:39:16.283Z,21.82
2018-07-30T03:40:16.547Z,21.79
2018-07-30T03:41:16.289Z,21.75
2018-07-30T03:42:16.379Z,21.76
2018-07-30T03:43:16.308Z,21.72
2018-07-30T03:44:16.301Z,21.69
2018-07-30T03:45:16.574Z,21.7
2018-07-30T03:46:16.557Z,21.67
2018-07-30T03:47:16.300Z,21.69
2018-07-30T03:48:16.559Z,21.72
2018-07-30T03:49:16.708Z,21.79
2018-07-30T03:50:16.570Z,21.7
2018-07-30T03:51:16.058Z,21.72
2018-07-30T03:52:16.316Z,21.8
2018-07-30T03:53:16.326Z,21.7
2018-07-30T03:54:16.593Z,21.66
2018-07-30T03:55:16.320Z,21.72
2018-07-30T03:56:16.322Z,21.77
2018-07-30T03:57:16.323Z,21.75
2018-07-30T03:58:16.332Z,21.8
2018-07-30T03:59:16.323Z,21.8
2018-07-30T04:00:16.623Z,21.82
2018-07-30T04:01:16.592Z,21.82
2018-07-30T04:02:16.328Z,21.83
2018-07-30T04:03:16.587Z,21.83
2018-07-30T04:04:16.331Z,21.85
2018-07-30T04:05:16.606Z,21.88
2018-07-30T04:06:16.968Z,21.95
2018-07-30T04:07:16.403Z,21.92
2018-07-30T04:08:16.606Z,21.92
2018-07-30T04:09:16.657Z,21.89
2018-07-30T04:10:16.615Z,21.98
2018-07-30T04:11:16.654Z,21.99
2018-07-30T04:12:16.360Z,21.96
2018-07-30T04:13:16.359Z,22.04
2018-07-30T04:14:16.357Z,21.95
2018-07-30T04:15:16.350Z,21.92
2018-07-30T04:16:16.104Z,21.79
2018-07-30T04:17:16.618Z,21.83
2018-07-30T04:18:16.618Z,21.83
2018-07-30T04:19:16.369Z,21.67
2018-07-30T04:20:16.377Z,21.64
2018-07-30T04:21:16.642Z,21.69
2018-07-30T04:22:16.863Z,21.58
2018-07-30T04:23:16.644Z,21.52
2018-07-30T04:24:16.651Z,21.43
2018-07-30T04:25:16.637Z,21.45
2018-07-30T04:26:16.416Z,21.61
2018-07-30T04:27:16.384Z,21.72
2018-07-30T04:28:16.391Z,22.02
2018-07-30T04:29:16.139Z,22.18
2018-07-30T04:30:16.136Z,22.3
2018-07-30T04:31:16.656Z,22.51
2018-07-30T04:32:16.399Z,22.68
2018-07-30T04:33:16.665Z,22.8
2018-07-30T04:34:16.419Z,22.87
2018-07-30T04:35:16.658Z,22.91
2018-07-30T04:36:16.668Z,22.99
2018-07-30T04:37:16.153Z,23.1
2018-07-30T04:38:16.668Z,23.13
2018-07-30T04:39:16.436Z,23.21
2018-07-30T04:40:16.161Z,23.37
2018-07-30T04:41:16.675Z,23.4
2018-07-30T04:42:16.676Z,23.44
2018-07-30T04:43:16.695Z,23.55
2018-07-30T04:44:16.442Z,23.58
2018-07-30T04:45:16.442Z,23.61
2018-07-30T04:46:16.684Z,23.44
2018-07-30T04:47:16.446Z,23.37
2018-07-30T04:48:16.736Z,23.44
2018-07-30T04:49:16.823Z,23.47
2018-07-30T04:50:16.894Z,23.47
2018-07-30T04:51:16.727Z,23.55
2018-07-30T04:52:16.465Z,23.73
2018-07-30T04:53:16.211Z,23.78
2018-07-30T04:54:16.235Z,23.81
2018-07-30T04:55:16.501Z,23.93
2018-07-30T04:56:16.489Z,24.06
2018-07-30T04:57:16.484Z,24.29
2018-07-30T04:58:16.490Z,24.54
2018-07-30T04:59:16.232Z,24.7
2018-07-30T05:00:16.239Z,24.78
2018-07-30T05:01:16.770Z,24.81
2018-07-30T05:02:16.247Z,24.95
2018-07-30T05:03:16.261Z,25.07
2018-07-30T05:04:16.786Z,25.32
2018-07-30T05:05:16.777Z,25.31
2018-07-30T05:06:16.775Z,25.43
2018-07-30T05:07:16.548Z,25.41
2018-07-30T05:08:16.572Z,25.5
2018-07-30T05:09:16.568Z,25.54
2018-07-30T05:10:16.800Z,25.41
2018-07-30T05:11:16.961Z,25.59
2018-07-30T05:12:16.826Z,25.54
2018-07-30T05:13:16.807Z,25.4
2018-07-30T05:14:16.544Z,25.48
2018-07-30T05:15:16.559Z,25.53
2018-07-30T05:16:16.574Z,25.53
2018-07-30T05:17:16.853Z,25.28
2018-07-30T05:18:16.592Z,25.06
2018-07-30T05:19:16.934Z,24.86
2018-07-30T05:20:16.872Z,24.69
2018-07-30T05:21:16.866Z,24.48
2018-07-30T05:22:16.890Z,24.05
2018-07-30T05:23:16.613Z,23.78
2018-07-30T05:24:16.887Z,23.77
2018-07-30T05:25:16.881Z,23.63
2018-07-30T05:26:16.643Z,23.59
2018-07-30T05:27:16.638Z,23.55
2018-07-30T05:28:16.883Z,23.51
2018-07-30T05:29:16.642Z,23.41
2018-07-30T05:30:16.654Z,23.47
2018-07-30T05:31:16.912Z,23.48
2018-07-30T05:32:16.923Z,23.47
2018-07-30T05:33:16.701Z,23.44
2018-07-30T05:34:16.654Z,23.46
2018-07-30T05:35:16.679Z,23.44
2018-07-30T05:36:16.926Z,23.5
2018-07-30T05:37:16.771Z,23.58
2018-07-30T05:38:16.923Z,23.68
2018-07-30T05:39:16.924Z,23.73
2018-07-30T05:40:16.682Z,24.14
2018-07-30T05:41:16.685Z,24.63
2018-07-30T05:42:16.679Z,25.16
2018-07-30T05:43:16.940Z,25.6
2018-07-30T05:44:16.969Z,25.96
2018-07-30T05:45:16.710Z,26.37
2018-07-30T05:46:16.715Z,26.75
2018-07-30T05:47:16.977Z,27.15
2018-07-30T05:48:16.979Z,27.64
2018-07-30T05:49:18.594Z,27.85
2018-07-30T05:50:16.842Z,28.08
2018-07-30T05:51:16.728Z,28.29
2018-07-30T05:52:17.004Z,28.54
2018-07-30T05:53:16.993Z,28.6
2018-07-30T05:54:17.020Z,28.6
2018-07-30T05:55:16.755Z,28.67
2018-07-30T05:56:17.027Z,28.6
2018-07-30T05:57:16.772Z,28.72
2018-07-30T05:58:17.032Z,28.85
2018-07-30T05:59:17.052Z,28.91
2018-07-30T06:00:17.043Z,28.97
2018-07-30T06:01:17.063Z,29.07
2018-07-30T06:02:16.805Z,29.29
2018-07-30T06:03:17.066Z,29.36
2018-07-30T06:04:17.070Z,29.59
2018-07-30T06:05:17.077Z,29.76
2018-07-30T06:06:17.101Z,29.84
2018-07-30T06:07:17.098Z,29.84
2018-07-30T06:08:17.108Z,29.95
2018-07-30T06:09:16.594Z,29.81
2018-07-30T06:10:16.867Z,29.87
2018-07-30T06:11:16.866Z,29.98
2018-07-30T06:12:17.135Z,30.15
2018-07-30T06:13:17.156Z,30.32
2018-07-30T06:14:16.896Z,30.46
2018-07-30T06:15:17.150Z,30.51
2018-07-30T06:16:17.157Z,30.5
2018-07-30T06:17:17.166Z,30.48
2018-07-30T06:18:17.177Z,30.54
2018-07-30T06:19:16.927Z,30.51
2018-07-30T06:20:17.219Z,30.61
2018-07-30T06:21:17.191Z,30.63
2018-07-30T06:22:16.957Z,30.75
2018-07-30T06:23:16.966Z,30.72
2018-07-30T06:24:16.721Z,30.78
2018-07-30T06:25:16.964Z,30.81
2018-07-30T06:26:17.231Z,30.84
2018-07-30T06:27:17.019Z,30.91
2018-07-30T06:28:16.984Z,30.87
2018-07-30T06:29:16.741Z,31.03
2018-07-30T06:30:17.269Z,31.27
2018-07-30T06:31:17.285Z,31.44
2018-07-30T06:32:17.282Z,31.59
2018-07-30T06:33:17.287Z,31.69
2018-07-30T06:34:17.321Z,31.56
2018-07-30T06:35:17.335Z,31.66
2018-07-30T06:36:17.315Z,31.42
2018-07-30T06:37:17.070Z,31.47
2018-07-30T06:38:17.398Z,31.65
2018-07-30T06:39:17.072Z,31.81
2018-07-30T06:40:16.833Z,31.84
2018-07-30T06:41:17.365Z,31.74
2018-07-30T06:42:17.111Z,31.89
2018-07-30T06:43:17.112Z,32.11
2018-07-30T06:44:17.394Z,32.49
2018-07-30T06:45:17.401Z,32.51
2018-07-30T06:46:17.401Z,32.59
2018-07-30T06:47:16.890Z,32.71
2018-07-30T06:48:17.416Z,32.71
2018-07-30T06:49:17.318Z,32.73
2018-07-30T06:50:17.435Z,32.75
2018-07-30T06:51:17.185Z,33.05
2018-07-30T06:52:17.194Z,33.12
2018-07-30T06:53:17.295Z,33.02
2018-07-30T06:54:17.239Z,33.11
2018-07-30T06:55:17.229Z,33.22
2018-07-30T06:56:17.506Z,33.37
2018-07-30T06:57:17.493Z,33.36
2018-07-30T06:58:17.262Z,33.47
2018-07-30T06:59:17.266Z,33.53
2018-07-30T07:00:17.541Z,33.69
2018-07-30T07:01:17.364Z,33.74
2018-07-30T07:02:17.312Z,33.79
2018-07-30T07:03:17.807Z,33.81
2018-07-30T07:04:17.582Z,33.98
2018-07-30T07:05:17.354Z,33.94
2018-07-30T07:06:17.579Z,34.01
2018-07-30T07:07:17.086Z,33.99
2018-07-30T07:08:17.360Z,33.84
2018-07-30T07:09:17.612Z,33.94
2018-07-30T07:10:17.369Z,34.25
2018-07-30T07:11:17.119Z,34.47
2018-07-30T07:12:17.396Z,34.66
2018-07-30T07:13:17.650Z,34.93
2018-07-30T07:14:17.408Z,34.95
2018-07-30T07:15:17.669Z,35
2018-07-30T07:16:17.436Z,35.02
2018-07-30T07:17:17.720Z,34.88
2018-07-30T07:18:17.447Z,34.4
2018-07-30T07:19:17.504Z,33.61
2018-07-30T07:20:17.477Z,33
2018-07-30T07:21:17.899Z,32.65
2018-07-30T07:22:17.764Z,32.38
2018-07-30T07:23:17.769Z,32.49
2018-07-30T07:24:17.534Z,32.48
2018-07-30T07:25:17.785Z,32.26
2018-07-30T07:26:17.549Z,32.18
2018-07-30T07:27:17.604Z,32.31
2018-07-30T07:28:17.828Z,32.49
2018-07-30T07:29:17.870Z,32.74
2018-07-30T07:30:17.839Z,33.11
2018-07-30T07:31:17.571Z,33.52
2018-07-30T07:32:17.843Z,33.42
2018-07-30T07:33:17.326Z,33.47
2018-07-30T07:34:17.611Z,33.83
2018-07-30T07:35:17.612Z,34.11
2018-07-30T07:36:17.912Z,34.36
2018-07-30T07:37:17.378Z,34.54
2018-07-30T07:38:17.654Z,34.61
2018-07-30T07:39:17.412Z,34.8
2018-07-30T07:40:18.123Z,35.08
2018-07-30T07:41:17.403Z,35.34
2018-07-30T07:42:17.660Z,35.6
2018-07-30T07:43:17.702Z,35.7
2018-07-30T07:44:17.687Z,35.79
2018-07-30T07:45:17.450Z,35.97
2018-07-30T07:46:17.712Z,36.24
2018-07-30T07:47:18.014Z,36.55
2018-07-30T07:48:18.422Z,36.59
2018-07-30T07:49:18.003Z,36.65
2018-07-30T07:50:18.070Z,36.8
2018-07-30T07:51:18.221Z,36.79
2018-07-30T07:52:17.767Z,36.43
2018-07-30T07:53:17.773Z,35.92
2018-07-30T07:54:18.048Z,35.8
2018-07-30T07:55:17.804Z,35.93
2018-07-30T07:56:17.809Z,35.86
2018-07-30T07:57:17.852Z,35.97
2018-07-30T07:58:17.819Z,36.09
2018-07-30T07:59:17.834Z,36.07
2018-07-30T08:00:18.106Z,36.24
2018-07-30T08:01:17.850Z,36.42
2018-07-30T08:02:17.864Z,36.62
2018-07-30T08:03:18.144Z,36.73
2018-07-30T08:04:18.153Z,36.93
2018-07-30T08:05:17.915Z,36.89
2018-07-30T08:06:18.520Z,36.73
2018-07-30T08:07:17.936Z,36.7
2018-07-30T08:08:18.217Z,36.96
2018-07-30T08:09:18.197Z,37.1
2018-07-30T08:10:18.209Z,37.1
2018-07-30T08:11:17.972Z,36.88
2018-07-30T08:12:18.260Z,36.86
2018-07-30T08:13:17.734Z,36.86
2018-07-30T08:14:17.995Z,36.93
2018-07-30T08:15:18.021Z,37.17
2018-07-30T08:16:17.826Z,37.4
2018-07-30T08:17:18.028Z,37.74
2018-07-30T08:18:18.305Z,37.92
2018-07-30T08:19:18.315Z,38.11
2018-07-30T08:20:18.329Z,38.3
2018-07-30T08:21:18.070Z,38.34
2018-07-30T08:22:18.254Z,38.27
2018-07-30T08:23:18.124Z,38.33
2018-07-30T08:24:18.375Z,38.26
2018-07-30T08:25:18.120Z,38.17
2018-07-30T08:26:18.142Z,38.21
2018-07-30T08:27:18.392Z,38.21
2018-07-30T08:28:18.156Z,38.19
2018-07-30T08:29:18.507Z,38.11
2018-07-30T08:30:19.232Z,38.06
2018-07-30T08:31:18.483Z,37.99
2018-07-30T08:32:18.236Z,37.89
2018-07-30T08:33:18.222Z,37.9
2018-07-30T08:34:18.481Z,37.89
2018-07-30T08:35:18.493Z,38.17
2018-07-30T08:36:18.248Z,38.49
2018-07-30T08:37:18.258Z,38.65
2018-07-30T08:38:18.539Z,38.62
2018-07-30T08:39:18.685Z,38.52
2018-07-30T08:40:18.554Z,38.46
2018-07-30T08:41:18.303Z,38.68
2018-07-30T08:42:18.841Z,38.67
2018-07-30T08:43:18.337Z,38.71
2018-07-30T08:44:18.603Z,38.73
2018-07-30T08:45:18.094Z,38.92
2018-07-30T08:46:18.658Z,39.26
2018-07-30T08:47:18.108Z,39.4
2018-07-30T08:48:18.649Z,39.49
2018-07-30T08:49:18.152Z,39.33
2018-07-30T08:50:18.557Z,39.38
2018-07-30T08:51:18.440Z,39.31
2018-07-30T08:52:18.425Z,38.89
2018-07-30T08:53:18.542Z,38.69
2018-07-30T08:54:18.721Z,38.28
2018-07-30T08:55:18.735Z,38.01
2018-07-30T08:56:18.819Z,37.37
2018-07-30T08:57:18.496Z,36.68
2018-07-30T08:58:18.517Z,35.71
2018-07-30T08:59:18.527Z,35.15
2018-07-30T09:00:18.520Z,34.61
2018-07-30T09:01:18.545Z,34.18
2018-07-30T09:02:18.816Z,33.71
2018-07-30T09:03:18.297Z,33.27
2018-07-30T09:04:18.827Z,33.08
2018-07-30T09:05:18.839Z,32.93
2018-07-30T09:06:18.848Z,32.85
2018-07-30T09:07:18.356Z,32.71
2018-07-30T09:08:18.609Z,32.78
2018-07-30T09:09:18.654Z,32.65
2018-07-30T09:10:18.650Z,32.55
2018-07-30T09:11:18.893Z,32.46
2018-07-30T09:12:18.640Z,32.34
2018-07-30T09:13:18.918Z,32.29
2018-07-30T09:14:18.665Z,32.22
2018-07-30T09:15:18.941Z,32.07
2018-07-30T09:16:18.940Z,32
2018-07-30T09:17:18.786Z,31.8
2018-07-30T09:18:18.492Z,31.76
2018-07-30T09:19:18.709Z,31.64
2018-07-30T09:20:18.462Z,31.69
2018-07-30T09:21:18.739Z,31.69
2018-07-30T09:22:18.474Z,31.66
2018-07-30T09:23:18.759Z,31.54
2018-07-30T09:24:18.753Z,31.62
2018-07-30T09:25:19.036Z,31.81
2018-07-30T09:26:19.041Z,31.84
2018-07-30T09:27:18.774Z,31.85
2018-07-30T09:28:19.062Z,31.85
2018-07-30T09:29:18.781Z,31.92
2018-07-30T09:30:19.054Z,31.92
2018-07-30T09:31:19.071Z,31.74
2018-07-30T09:32:18.551Z,31.8
2018-07-30T09:33:18.814Z,32.08
2018-07-30T09:34:19.077Z,32.11
2018-07-30T09:35:19.903Z,32.21
2018-07-30T09:36:19.101Z,32.38
2018-07-30T09:37:18.839Z,32.38
2018-07-30T09:38:19.106Z,32.51
2018-07-30T09:39:19.334Z,32.58
2018-07-30T09:40:19.119Z,32.75
2018-07-30T09:41:18.896Z,32.82
2018-07-30T09:42:18.629Z,32.77
2018-07-30T09:43:18.892Z,32.77
2018-07-30T09:44:19.151Z,32.58
2018-07-30T09:45:18.916Z,32.38
2018-07-30T09:46:18.645Z,32.27
2018-07-30T09:47:18.656Z,32.34
2018-07-30T09:48:18.660Z,32.36
2018-07-30T09:49:18.934Z,32.38
2018-07-30T09:50:18.951Z,32.43
2018-07-30T09:51:18.689Z,32.36
2018-07-30T09:52:19.006Z,32.38
2018-07-30T09:53:18.969Z,32.43
2018-07-30T09:54:18.967Z,32.43
2018-07-30T09:55:18.966Z,32.67
2018-07-30T09:56:19.102Z,32.73
2018-07-30T09:57:19.000Z,32.65
2018-07-30T09:58:18.996Z,32.53
2018-07-30T09:59:19.250Z,32.53
2018-07-30T10:00:19.008Z,32.38
2018-07-30T10:01:19.015Z,32.31
2018-07-30T10:02:19.274Z,32.37
2018-07-30T10:03:19.049Z,32.43
2018-07-30T10:04:19.276Z,32.51
2018-07-30T10:05:19.577Z,32.68
2018-07-30T10:06:19.598Z,32.75
2018-07-30T10:07:19.378Z,32.89
2018-07-30T10:08:19.324Z,32.82
2018-07-30T10:09:18.823Z,32.58
2018-07-30T10:10:19.431Z,32.4
2018-07-30T10:11:19.355Z,32.3
2018-07-30T10:12:19.096Z,32.26
2018-07-30T10:13:18.830Z,32.4
2018-07-30T10:14:19.350Z,32.52
2018-07-30T10:15:19.914Z,32.49
2018-07-30T10:16:18.861Z,32.49
2018-07-30T10:17:18.864Z,32.63
2018-07-30T10:18:19.578Z,32.63
2018-07-30T10:19:19.384Z,32.55
2018-07-30T10:20:19.402Z,32.75
2018-07-30T10:21:18.904Z,32.75
2018-07-30T10:22:19.423Z,32.93
2018-07-30T10:23:19.434Z,32.85
2018-07-30T10:24:19.179Z,32.92
2018-07-30T10:25:19.175Z,32.96
2018-07-30T10:26:19.190Z,32.93
2018-07-30T10:27:19.452Z,32.83
2018-07-30T10:28:19.455Z,32.87
2018-07-30T10:29:19.514Z,32.96
2018-07-30T10:30:19.465Z,32.89
2018-07-30T10:31:19.233Z,32.89
2018-07-30T10:32:19.225Z,32.82
2018-07-30T10:33:19.237Z,32.89
2018-07-30T10:34:19.246Z,32.75
2018-07-30T10:35:19.497Z,32.75
2018-07-30T10:36:19.506Z,32.71
2018-07-30T10:37:19.510Z,32.73
2018-07-30T10:38:19.608Z,32.56
2018-07-30T10:39:19.532Z,32.68
2018-07-30T10:40:19.060Z,32.73
2018-07-30T10:41:19.547Z,33.01
2018-07-30T10:42:19.297Z,33.12
2018-07-30T10:43:19.302Z,33.28
2018-07-30T10:44:19.299Z,33.45
2018-07-30T10:45:19.318Z,33.37
2018-07-30T10:46:19.414Z,33.24
2018-07-30T10:47:19.329Z,33.02
2018-07-30T10:48:19.335Z,32.89
2018-07-30T10:49:19.082Z,32.83
2018-07-30T10:50:19.097Z,32.83
2018-07-30T10:51:19.613Z,32.82
2018-07-30T10:52:19.366Z,32.83
2018-07-30T10:53:19.367Z,32.74
2018-07-30T10:54:19.388Z,32.68
2018-07-30T10:55:19.386Z,32.73
2018-07-30T10:56:19.387Z,32.78
2018-07-30T10:57:19.648Z,32.8
2018-07-30T10:58:19.404Z,32.75
2018-07-30T10:59:19.662Z,32.71
2018-07-30T11:00:19.417Z,32.55
2018-07-30T11:01:19.436Z,32.71
2018-07-30T11:02:19.686Z,32.63
2018-07-30T11:03:19.200Z,32.6
2018-07-30T11:04:19.446Z,32.73
2018-07-30T11:05:19.708Z,32.71
2018-07-30T11:06:19.714Z,32.9
2018-07-30T11:07:19.475Z,33.02
2018-07-30T11:08:19.483Z,33.08
2018-07-30T11:09:19.227Z,33.31
2018-07-30T11:10:19.752Z,33.55
2018-07-30T11:11:19.749Z,33.74
2018-07-30T11:12:19.274Z,33.8
2018-07-30T11:13:19.507Z,33.96
2018-07-30T11:14:19.282Z,34.03
2018-07-30T11:15:19.777Z,34.02
2018-07-30T11:16:19.521Z,33.69
2018-07-30T11:17:19.837Z,33.39
2018-07-30T11:18:19.293Z,33.31
2018-07-30T11:19:19.557Z,33.2
2018-07-30T11:20:19.561Z,33
2018-07-30T11:21:19.820Z,32.89
2018-07-30T11:22:19.566Z,32.83
2018-07-30T11:23:19.572Z,32.87
2018-07-30T11:24:19.602Z,32.8
2018-07-30T11:25:19.625Z,32.73
2018-07-30T11:26:19.862Z,32.83
2018-07-30T11:27:19.413Z,32.87
2018-07-30T11:28:19.735Z,32.82
2018-07-30T11:29:19.366Z,32.86
2018-07-30T11:30:19.619Z,32.87
2018-07-30T11:31:19.924Z,32.73
2018-07-30T11:32:19.692Z,32.82
2018-07-30T11:33:19.642Z,32.82
2018-07-30T11:34:19.910Z,32.78
2018-07-30T11:35:19.927Z,32.85
2018-07-30T11:36:19.659Z,32.93
2018-07-30T11:37:19.931Z,32.86
2018-07-30T11:38:19.422Z,32.75
2018-07-30T11:39:19.692Z,32.59
2018-07-30T11:40:19.943Z,32.78
2018-07-30T11:41:19.698Z,32.78
2018-07-30T11:42:19.711Z,33.01
2018-07-30T11:43:19.736Z,33.04
2018-07-30T11:44:19.984Z,33.17
2018-07-30T11:45:19.736Z,33.2
2018-07-30T11:46:19.731Z,33.22
2018-07-30T11:47:20.053Z,33.36
2018-07-30T11:48:19.813Z,33.34
2018-07-30T11:49:19.755Z,33.47
2018-07-30T11:50:19.753Z,33.55
2018-07-30T11:51:19.761Z,33.65
2018-07-30T11:52:19.765Z,33.68
2018-07-30T11:53:20.039Z,33.65
2018-07-30T11:54:20.200Z,33.68
2018-07-30T11:55:20.083Z,33.74
2018-07-30T11:56:19.808Z,33.81
2018-07-30T11:57:20.074Z,33.81
2018-07-30T11:58:19.569Z,33.73
2018-07-30T11:59:19.814Z,33.58
2018-07-30T12:00:20.076Z,33.57
2018-07-30T12:01:19.623Z,33.58
2018-07-30T12:02:19.850Z,33.59
2018-07-30T12:03:20.107Z,33.55
2018-07-30T12:04:20.113Z,33.58
2018-07-30T12:05:19.622Z,33.62
2018-07-30T12:06:20.134Z,33.53
2018-07-30T12:07:20.140Z,33.37
2018-07-30T12:08:19.898Z,33.32
2018-07-30T12:09:19.916Z,33.37
2018-07-30T12:10:20.258Z,33.34
2018-07-30T12:11:20.166Z,33.46
2018-07-30T12:12:20.215Z,33.47
2018-07-30T12:13:19.928Z,33.53
2018-07-30T12:14:19.919Z,33.58
2018-07-30T12:15:19.937Z,33.46
2018-07-30T12:16:20.204Z,33.36
2018-07-30T12:17:20.224Z,33.36
2018-07-30T12:18:20.287Z,33.24
2018-07-30T12:19:20.255Z,33.23
2018-07-30T12:20:19.982Z,33.27
2018-07-30T12:21:20.224Z,33.14
2018-07-30T12:22:19.986Z,33.11
2018-07-30T12:23:20.228Z,33.02
2018-07-30T12:24:20.249Z,32.9
2018-07-30T12:25:20.260Z,32.95
2018-07-30T12:26:20.261Z,32.96
2018-07-30T12:27:20.263Z,33
2018-07-30T12:28:20.280Z,33.05
2018-07-30T12:29:20.023Z,33.11
2018-07-30T12:30:19.794Z,33.09
2018-07-30T12:31:20.039Z,33.09
2018-07-30T12:32:20.305Z,33.02
2018-07-30T12:33:20.049Z,32.95
2018-07-30T12:34:20.063Z,32.96
2018-07-30T12:35:20.323Z,33.02
2018-07-30T12:36:20.676Z,33.14
2018-07-30T12:37:20.332Z,33.14
2018-07-30T12:38:20.343Z,33.24
2018-07-30T12:39:20.383Z,33.28
2018-07-30T12:40:20.354Z,33.36
2018-07-30T12:41:20.378Z,33.37
2018-07-30T12:42:20.128Z,33.5
2018-07-30T12:43:20.374Z,33.67
2018-07-30T12:44:20.378Z,33.79
2018-07-30T12:45:20.405Z,33.87
2018-07-30T12:46:20.434Z,34.05
2018-07-30T12:47:20.440Z,34.24
2018-07-30T12:48:20.470Z,34.29
2018-07-30T12:49:20.406Z,34.18
2018-07-30T12:50:20.439Z,34.18
2018-07-30T12:51:20.516Z,34.2
2018-07-30T12:52:20.434Z,34.21
2018-07-30T12:53:20.493Z,34.18
2018-07-30T12:54:20.444Z,34.06
2018-07-30T12:55:20.474Z,34.08